createdAt,value
2018-12-20T00:02:27.507Z,-2.50
2018-12-20T00:04:55.279Z,-2.48
2018-12-20T00:07:22.804Z,-2.45
2018-12-20T00:09:50.478Z,-2.36
2018-12-20T00:12:18.010Z,-2.47
2018-12-20T00:14:45.542Z,-2.51
2018-12-20T00:17:18.953Z,-2.48
2018-12-20T00:19:46.618Z,-2.37
2018-12-20T00:22:14.078Z,-2.42
2018-12-20T00:24:41.783Z,-2.49
2018-12-20T00:27:09.412Z,-2.51
2018-12-20T00:29:36.981Z,-2.42
2018-12-20T00:32:04.639Z,-2.48
2018-12-20T00:34:32.288Z,-2.45
2018-12-20T00:36:59.972Z,-2.48
2018-12-20T00:39:27.640Z,-2.55
2018-12-20T00:41:55.180Z,-2.61
2018-12-20T00:44:22.717Z,-2.65
2018-12-20T00:46:50.514Z,-2.58
2018-12-20T00:49:18.100Z,-2.56
2018-12-20T00:51:45.701Z,-2.64
2018-12-20T00:54:13.420Z,-2.74
2018-12-20T00:56:41.066Z,-2.67
2018-12-20T00:59:08.587Z,-2.60
2018-12-20T01:01:36.398Z,-2.60
2018-12-20T01:04:03.885Z,-2.70
2018-12-20T01:06:31.452Z,-2.78
2018-12-20T01:08:59.330Z,-2.77
2018-12-20T01:11:26.895Z,-2.77
2018-12-20T01:13:54.675Z,-2.74
2018-12-20T01:16:22.185Z,-2.76
2018-12-20T01:18:49.838Z,-2.73
2018-12-20T01:21:17.440Z,-2.67
2018-12-20T01:23:45.101Z,-2.70
2018-12-20T01:26:12.720Z,-2.73
2018-12-20T01:28:40.305Z,-2.69
2018-12-20T01:31:08.179Z,-2.66
2018-12-20T01:33:35.682Z,-2.62
2018-12-20T01:36:03.228Z,-2.61
2018-12-20T01:38:30.992Z,-2.59
2018-12-20T01:40:58.567Z,-2.63
2018-12-20T01:43:26.151Z,-2.63
2018-12-20T01:45:54.036Z,-2.59
2018-12-20T01:48:21.730Z,-2.60
2018-12-20T01:50:49.293Z,-2.59
2018-12-20T01:53:16.864Z,-2.64
2018-12-20T01:55:44.519Z,-2.70
2018-12-20T01:58:12.003Z,-2.70
2018-12-20T02:00:39.779Z,-2.60
2018-12-20T02:03:07.391Z,-2.47
2018-12-20T02:05:34.921Z,-2.55
2018-12-20T02:08:02.768Z,-2.58
2018-12-20T02:10:30.379Z,-2.51
2018-12-20T02:12:57.905Z,-2.65
2018-12-20T02:15:25.721Z,-2.63
2018-12-20T02:17:53.260Z,-2.68
2018-12-20T02:20:20.950Z,-2.63
2018-12-20T02:22:48.598Z,-2.74
2018-12-20T02:25:16.154Z,-2.63
2018-12-20T02:27:43.717Z,-2.67
2018-12-20T02:30:11.796Z,-2.74
2018-12-20T02:32:39.206Z,-2.72
2018-12-20T02:35:07.008Z,-2.74
2018-12-20T02:37:34.556Z,-2.81
2018-12-20T02:40:02.342Z,-2.84
2018-12-20T02:42:29.746Z,-2.82
2018-12-20T02:44:57.687Z,-3.00
2018-12-20T02:47:25.100Z,-3.09
2018-12-20T02:49:52.632Z,-3.09
2018-12-20T02:52:20.342Z,-3.14
2018-12-20T02:54:48.029Z,-3.14
2018-12-20T02:57:15.788Z,-2.71
2018-12-20T02:59:43.475Z,-2.83
2018-12-20T03:02:11.197Z,-2.62
2018-12-20T03:04:38.799Z,-2.31
2018-12-20T03:07:06.552Z,-2.28
2018-12-20T03:09:34.083Z,-2.14
2018-12-20T03:12:01.660Z,-1.93
2018-12-20T03:14:29.379Z,-1.86
2018-12-20T03:16:57.060Z,-1.94
2018-12-20T03:19:24.475Z,-2.30
2018-12-20T03:21:52.117Z,-2.13
2018-12-20T03:24:19.676Z,-2.39
2018-12-20T03:26:47.239Z,-2.42
2018-12-20T03:29:15.191Z,-2.39
2018-12-20T03:31:42.528Z,-2.31
2018-12-20T03:34:10.135Z,-2.26
2018-12-20T03:36:37.831Z,-2.02
2018-12-20T03:39:05.672Z,-1.73
2018-12-20T03:41:33.132Z,-1.56
2018-12-20T03:44:00.800Z,-1.59
2018-12-20T03:46:28.414Z,-1.51
2018-12-20T03:48:56.193Z,-1.38
2018-12-20T03:51:23.956Z,-1.36
2018-12-20T03:53:51.544Z,-1.18
2018-12-20T03:56:19.095Z,-1.00
2018-12-20T03:58:47.028Z,-0.96
2018-12-20T04:01:14.539Z,-1.20
2018-12-20T04:03:42.143Z,-1.30
2018-12-20T04:06:09.821Z,-1.27
2018-12-20T04:08:37.380Z,-1.31
2018-12-20T04:11:04.946Z,-1.22
2018-12-20T04:13:32.710Z,-1.19
2018-12-20T04:16:00.266Z,-1.23
2018-12-20T04:18:28.124Z,-1.27
2018-12-20T04:20:55.497Z,-1.20
2018-12-20T04:23:23.065Z,-1.35
2018-12-20T04:25:50.743Z,-1.13
2018-12-20T04:28:18.477Z,-1.10
2018-12-20T04:30:45.955Z,-1.25
2018-12-20T04:33:13.655Z,-1.26
2018-12-20T04:35:41.503Z,-1.38
2018-12-20T04:38:08.937Z,-1.49
2018-12-20T04:40:36.556Z,-1.36
2018-12-20T04:43:04.438Z,-1.38
2018-12-20T04:45:32.016Z,-1.17
2018-12-20T04:47:59.562Z,-1.02
2018-12-20T04:50:27.274Z,-0.87
2018-12-20T04:52:54.993Z,-0.89
2018-12-20T04:55:22.540Z,-0.46
2018-12-20T04:57:50.312Z,-0.45
2018-12-20T05:00:17.874Z,-0.46
2018-12-20T05:02:45.457Z,-0.61
2018-12-20T05:05:13.481Z,-0.48
2018-12-20T05:07:40.987Z,-0.49
2018-12-20T05:10:08.469Z,-0.67
2018-12-20T05:12:36.472Z,-0.76
2018-12-20T05:15:04.158Z,-0.97
2018-12-20T05:17:31.684Z,-0.78
2018-12-20T05:19:59.384Z,-0.79
2018-12-20T05:22:26.933Z,-0.73
2018-12-20T05:24:54.661Z,-0.76
2018-12-20T05:27:22.148Z,-0.83
2018-12-20T05:29:49.921Z,-0.90
2018-12-20T05:32:17.297Z,-1.26
2018-12-20T05:34:45.154Z,-1.65
2018-12-20T05:37:12.878Z,-1.86
2018-12-20T05:39:40.270Z,-1.89
2018-12-20T05:42:09.320Z,-1.81
2018-12-20T05:44:36.848Z,-1.83
2018-12-20T05:47:04.708Z,-1.48
2018-12-20T05:49:32.378Z,-1.21
2018-12-20T05:52:00.741Z,-1.23
2018-12-20T05:54:28.473Z,-1.38
2018-12-20T05:56:56.484Z,-1.51
2018-12-20T05:59:24.038Z,-1.63
2018-12-20T06:01:51.607Z,-1.72
2018-12-20T06:04:19.266Z,-1.58
2018-12-20T06:06:47.005Z,-1.61
2018-12-20T06:09:14.772Z,-1.64
2018-12-20T06:11:42.375Z,-1.65
2018-12-20T06:14:09.933Z,-1.65
2018-12-20T06:16:37.805Z,-1.61
2018-12-20T06:19:05.438Z,-1.30
2018-12-20T06:21:33.000Z,-1.06
2018-12-20T06:24:00.540Z,-1.02
2018-12-20T06:26:28.256Z,-0.89
2018-12-20T06:28:55.801Z,-0.75
2018-12-20T06:31:23.374Z,-0.65
2018-12-20T06:33:51.224Z,-0.48
2018-12-20T06:36:18.771Z,-0.57
2018-12-20T06:38:46.333Z,-0.70
2018-12-20T06:41:15.041Z,-0.48
2018-12-20T06:43:42.616Z,-0.33
2018-12-20T06:46:10.176Z,-0.37
2018-12-20T06:48:37.898Z,-0.35
2018-12-20T06:51:05.480Z,-0.44
2018-12-20T06:53:33.077Z,-0.40
2018-12-20T06:56:11.234Z,-0.19
2018-12-20T06:58:38.799Z,-0.16
2018-12-20T07:01:06.360Z,-0.15
2018-12-20T07:03:34.191Z,0.21
2018-12-20T07:06:01.780Z,-0.30
2018-12-20T07:08:29.346Z,-0.70
2018-12-20T07:11:14.856Z,-0.42
2018-12-20T07:13:42.425Z,-0.50
2018-12-20T07:16:09.974Z,-0.44
2018-12-20T07:18:37.719Z,-0.32
2018-12-20T07:21:05.292Z,-0.11
2018-12-20T07:23:32.891Z,-0.19
2018-12-20T07:26:00.482Z,-0.07
2018-12-20T07:28:28.072Z,0.02
2018-12-20T07:30:55.664Z,0.28
2018-12-20T07:33:23.418Z,0.27
2018-12-20T07:35:50.960Z,0.29
2018-12-20T07:38:18.549Z,0.24
2018-12-20T07:40:46.281Z,0.62
2018-12-20T07:43:13.851Z,1.14
2018-12-20T07:45:41.417Z,0.96
2018-12-20T07:48:09.308Z,0.79
2018-12-20T07:50:36.843Z,1.23
2018-12-20T07:53:04.406Z,0.87
2018-12-20T07:55:32.015Z,1.01
2018-12-20T07:57:59.567Z,0.97
2018-12-20T08:00:27.182Z,1.29
2018-12-20T08:02:54.797Z,1.46
2018-12-20T08:05:22.369Z,1.40
2018-12-20T08:07:49.925Z,1.29
2018-12-20T08:10:17.796Z,1.22
2018-12-20T08:12:45.356Z,0.99
2018-12-20T08:15:12.905Z,0.99
2018-12-20T08:17:40.510Z,0.91
2018-12-20T08:20:08.105Z,1.20
2018-12-20T08:22:35.636Z,1.22
2018-12-20T08:25:03.238Z,1.01
2018-12-20T08:27:30.808Z,1.26
2018-12-20T08:29:58.368Z,1.15
2018-12-20T08:32:26.046Z,1.21
2018-12-20T08:34:53.607Z,1.11
2018-12-20T08:37:21.191Z,1.33
2018-12-20T08:39:48.875Z,1.37
2018-12-20T08:42:16.433Z,1.39
2018-12-20T08:44:44.001Z,1.41
2018-12-20T08:47:11.714Z,1.21
2018-12-20T08:49:39.257Z,1.02
2018-12-20T08:52:06.780Z,1.25
2018-12-20T08:54:34.417Z,1.50
2018-12-20T08:57:01.986Z,1.21
2018-12-20T08:59:29.556Z,1.22
2018-12-20T09:01:57.308Z,1.29
2018-12-20T09:04:24.853Z,1.48
2018-12-20T09:06:52.422Z,1.68
2018-12-20T09:09:20.280Z,1.25
2018-12-20T09:11:47.824Z,0.95
2018-12-20T09:14:16.273Z,0.92
2018-12-20T09:16:43.293Z,0.92
2018-12-20T09:19:10.840Z,0.86
2018-12-20T09:21:38.373Z,1.10
2018-12-20T09:24:06.158Z,1.48
2018-12-20T09:26:33.710Z,1.47
2018-12-20T09:29:01.250Z,1.92
2018-12-20T09:31:28.878Z,1.60
2018-12-20T09:33:56.436Z,1.49
2018-12-20T09:36:24.035Z,1.51
2018-12-20T09:38:51.646Z,1.80
2018-12-20T09:41:19.201Z,1.67
2018-12-20T09:43:46.764Z,1.73
2018-12-20T09:46:14.418Z,1.62
2018-12-20T09:48:41.956Z,1.27
2018-12-20T09:51:09.565Z,1.55
2018-12-20T09:53:37.434Z,1.68
2018-12-20T09:56:05.030Z,1.78
2018-12-20T09:58:32.569Z,1.97
2018-12-20T10:01:00.161Z,1.92
2018-12-20T10:03:27.725Z,1.90
2018-12-20T10:05:55.292Z,1.87
2018-12-20T10:08:22.957Z,1.65
2018-12-20T10:10:50.547Z,1.90
2018-12-20T10:13:18.109Z,1.69
2018-12-20T10:15:45.842Z,1.35
2018-12-20T10:18:13.407Z,1.45
2018-12-20T10:20:40.950Z,1.74
2018-12-20T10:23:08.654Z,1.91
2018-12-20T10:25:36.210Z,1.59
2018-12-20T10:28:03.817Z,1.60
2018-12-20T10:30:31.542Z,1.50
2018-12-20T10:32:59.106Z,1.39
2018-12-20T10:35:26.661Z,1.66
2018-12-20T10:37:54.633Z,1.48
2018-12-20T10:40:22.197Z,1.74
2018-12-20T10:42:49.755Z,2.10
2018-12-20T10:45:17.481Z,2.33
2018-12-20T10:47:45.063Z,1.88
2018-12-20T10:50:12.616Z,2.23
2018-12-20T10:52:40.209Z,2.05
2018-12-20T10:55:07.849Z,2.14
2018-12-20T10:57:35.501Z,2.04
2018-12-20T11:00:04.523Z,2.14
2018-12-20T11:02:38.139Z,1.76
2018-12-20T11:05:05.896Z,1.97
2018-12-20T11:07:39.024Z,2.17
2018-12-20T11:10:12.424Z,2.19
2018-12-20T11:12:47.465Z,2.07
2018-12-20T11:15:15.363Z,2.27
2018-12-20T11:17:42.905Z,1.75
2018-12-20T11:20:10.493Z,1.66
2018-12-20T11:22:38.173Z,1.65
2018-12-20T11:25:05.832Z,1.59
2018-12-20T11:27:33.404Z,1.71
2018-12-20T11:30:01.150Z,1.55
2018-12-20T11:32:28.723Z,1.43
2018-12-20T11:34:56.280Z,1.46
2018-12-20T11:37:23.926Z,1.49
2018-12-20T11:39:59.193Z,1.39
2018-12-20T11:42:19.156Z,1.09
2018-12-20T11:44:46.942Z,1.08
2018-12-20T11:47:20.157Z,1.10
2018-12-20T11:49:48.071Z,0.79
2018-12-20T11:52:15.625Z,0.76
2018-12-20T11:54:43.194Z,0.63
2018-12-20T11:57:11.027Z,0.79
2018-12-20T11:59:38.600Z,0.76
2018-12-20T12:02:06.226Z,0.83
2018-12-20T12:04:33.933Z,0.80
2018-12-20T12:07:01.500Z,1.10
2018-12-20T12:09:29.025Z,1.12
2018-12-20T12:11:56.776Z,1.19
2018-12-20T12:14:24.406Z,0.97
2018-12-20T12:16:51.980Z,1.02
2018-12-20T12:19:20.085Z,0.98
2018-12-20T12:21:49.511Z,1.02
2018-12-20T12:24:15.797Z,1.25
2018-12-20T12:26:43.523Z,1.09
2018-12-20T12:29:11.073Z,1.03
2018-12-20T12:31:38.632Z,1.13
2018-12-20T12:34:06.268Z,0.95
2018-12-20T12:36:33.847Z,1.30
2018-12-20T12:39:01.437Z,1.13
2018-12-20T12:41:29.167Z,1.24
2018-12-20T12:43:56.722Z,1.38
2018-12-20T12:46:24.297Z,1.04
2018-12-20T12:48:51.943Z,1.14
2018-12-20T12:51:19.512Z,0.80
2018-12-20T12:53:47.104Z,0.94
2018-12-20T12:56:14.821Z,1.05
2018-12-20T12:58:42.393Z,0.91
2018-12-20T13:01:09.966Z,0.92
2018-12-20T13:03:37.867Z,0.77
2018-12-20T13:06:05.489Z,0.88
2018-12-20T13:08:33.061Z,1.04
2018-12-20T13:11:00.782Z,0.88
2018-12-20T13:13:28.354Z,0.82
2018-12-20T13:15:55.932Z,0.70
2018-12-20T13:18:23.869Z,0.79
2018-12-20T13:20:51.427Z,0.84
2018-12-20T13:23:19.006Z,0.89
2018-12-20T13:25:46.733Z,0.91
2018-12-20T13:28:14.317Z,0.56
2018-12-20T13:30:41.899Z,0.38
2018-12-20T13:33:09.701Z,0.59
2018-12-20T13:35:37.408Z,0.48
2018-12-20T13:38:05.010Z,0.47
2018-12-20T13:40:32.676Z,0.37
2018-12-20T13:43:00.221Z,0.42
2018-12-20T13:45:27.781Z,0.33
2018-12-20T13:47:55.620Z,0.09
2018-12-20T13:50:23.174Z,-0.12
2018-12-20T13:52:50.866Z,-0.13
2018-12-20T13:55:18.706Z,-0.04
2018-12-20T13:57:46.256Z,-0.15
2018-12-20T14:00:13.928Z,-0.02
2018-12-20T14:02:41.731Z,0.00
2018-12-20T14:05:09.327Z,0.13
2018-12-20T14:07:36.849Z,0.19
2018-12-20T14:10:04.554Z,0.61
2018-12-20T14:12:32.137Z,0.15
2018-12-20T14:14:59.704Z,0.07
2018-12-20T14:17:27.363Z,0.17
2018-12-20T14:19:54.993Z,0.25
2018-12-20T14:22:22.533Z,0.02
2018-12-20T14:24:50.157Z,0.25
2018-12-20T14:27:17.730Z,0.37
2018-12-20T14:29:45.328Z,0.23
2018-12-20T14:32:13.003Z,0.25
2018-12-20T14:34:40.574Z,0.21
2018-12-20T14:37:08.140Z,0.32
2018-12-20T14:39:35.753Z,0.35
2018-12-20T14:42:03.369Z,0.38
2018-12-20T14:44:30.929Z,0.24
2018-12-20T14:46:58.761Z,0.13
2018-12-20T14:49:26.348Z,0.13
2018-12-20T14:51:53.895Z,0.04
2018-12-20T14:54:21.777Z,0.13
2018-12-20T14:56:49.332Z,0.20
2018-12-20T14:59:16.896Z,0.19
2018-12-20T15:01:44.625Z,0.18
2018-12-20T15:04:12.202Z,0.20
2018-12-20T15:06:39.814Z,0.23
2018-12-20T15:09:07.577Z,0.21
2018-12-20T15:11:35.149Z,0.18
2018-12-20T15:14:02.782Z,0.28
2018-12-20T15:16:30.670Z,0.37
2018-12-20T15:18:58.254Z,0.36
2018-12-20T15:21:25.831Z,0.14
2018-12-20T15:23:53.538Z,0.58
2018-12-20T15:26:21.107Z,0.63
2018-12-20T15:28:49.274Z,0.88
2018-12-20T15:31:17.020Z,0.85
2018-12-20T15:33:44.549Z,0.98
2018-12-20T15:36:12.140Z,0.87
2018-12-20T15:38:39.802Z,0.69
2018-12-20T15:41:07.377Z,0.64
2018-12-20T15:43:34.944Z,0.51
2018-12-20T15:46:02.747Z,0.49
2018-12-20T15:48:30.320Z,0.45
2018-12-20T15:50:57.906Z,0.23
2018-12-20T15:53:25.826Z,0.09
2018-12-20T15:55:53.385Z,0.22
2018-12-20T15:58:20.938Z,0.14
2018-12-20T16:00:48.645Z,-0.08
2018-12-20T16:03:16.217Z,0.02
2018-12-20T16:05:43.766Z,0.12
2018-12-20T16:08:11.472Z,0.09
2018-12-20T16:10:39.081Z,0.48
2018-12-20T16:13:06.809Z,0.24
2018-12-20T16:15:34.391Z,0.02
2018-12-20T16:18:01.996Z,0.18
2018-12-20T16:20:29.569Z,0.14
2018-12-20T16:22:57.270Z,0.29
2018-12-20T16:25:24.869Z,0.31
2018-12-20T16:27:52.401Z,0.18
2018-12-20T16:30:20.011Z,0.18
2018-12-20T16:32:47.583Z,0.19
2018-12-20T16:35:15.128Z,0.31
2018-12-20T16:37:42.727Z,0.28
2018-12-20T16:40:10.281Z,0.34
2018-12-20T16:42:37.821Z,0.29
2018-12-20T16:45:05.601Z,0.23
2018-12-20T16:47:33.173Z,0.31
2018-12-20T16:50:05.917Z,0.40
2018-12-20T16:52:33.468Z,0.40
2018-12-20T16:55:01.041Z,0.21
2018-12-20T16:57:29.990Z,0.12
2018-12-20T16:59:57.577Z,0.14
2018-12-20T17:02:25.142Z,0.40
2018-12-20T17:04:53.020Z,0.32
2018-12-20T17:07:20.619Z,0.33
2018-12-20T17:09:48.189Z,0.43
2018-12-20T17:12:15.896Z,0.40
2018-12-20T17:14:43.529Z,0.31
2018-12-20T17:17:11.049Z,0.30
2018-12-20T17:19:38.784Z,0.46
2018-12-20T17:22:06.341Z,0.54
2018-12-20T17:24:34.745Z,0.35
2018-12-20T17:27:02.493Z,0.41
2018-12-20T17:29:30.049Z,0.53
2018-12-20T17:31:57.593Z,0.78
2018-12-20T17:34:25.191Z,0.95
2018-12-20T17:36:52.765Z,0.65
2018-12-20T17:39:20.418Z,0.64
2018-12-20T17:41:48.077Z,0.75
2018-12-20T17:44:15.670Z,0.58
2018-12-20T17:46:43.228Z,0.34
2018-12-20T17:49:10.907Z,0.46
2018-12-20T17:51:38.511Z,0.54
2018-12-20T17:54:06.122Z,0.54
2018-12-20T17:56:33.994Z,0.55
2018-12-20T17:59:01.514Z,0.47
2018-12-20T18:01:29.066Z,0.45
2018-12-20T18:03:56.693Z,0.60
2018-12-20T18:06:24.256Z,0.40
2018-12-20T18:08:52.387Z,0.66
2018-12-20T18:11:20.329Z,0.69
2018-12-20T18:13:48.216Z,0.68
2018-12-20T18:16:16.049Z,0.59
2018-12-20T18:18:43.714Z,0.46
2018-12-20T18:21:11.270Z,0.41
2018-12-20T18:23:38.833Z,0.73
2018-12-20T18:26:06.516Z,0.71
2018-12-20T18:28:34.281Z,0.67
2018-12-20T18:31:04.105Z,0.73
2018-12-20T18:33:31.962Z,0.60
2018-12-20T18:35:59.505Z,0.35
2018-12-20T18:38:27.080Z,0.40
2018-12-20T18:40:54.633Z,0.36
2018-12-20T18:43:22.187Z,0.20
2018-12-20T18:45:49.847Z,0.28
2018-12-20T18:48:17.469Z,0.64
2018-12-20T18:50:45.050Z,0.67
2018-12-20T18:53:12.576Z,0.78
2018-12-20T18:55:41.062Z,0.90
2018-12-20T18:58:08.605Z,1.04
2018-12-20T19:00:36.186Z,1.00
2018-12-20T19:03:03.817Z,0.96
2018-12-20T19:05:31.429Z,1.04
2018-12-20T19:07:58.985Z,0.91
2018-12-20T19:10:26.830Z,0.82
2018-12-20T19:12:54.377Z,0.57
2018-12-20T19:15:21.983Z,0.75
2018-12-20T19:17:49.710Z,0.52
2018-12-20T19:20:17.269Z,0.76
2018-12-20T19:22:44.842Z,0.55
2018-12-20T19:25:12.412Z,0.53
2018-12-20T19:27:39.966Z,0.40
2018-12-20T19:30:07.642Z,0.58
2018-12-20T19:32:35.405Z,0.37
2018-12-20T19:35:03.044Z,0.74
2018-12-20T19:37:30.608Z,0.60
2018-12-20T19:39:58.457Z,0.49
2018-12-20T19:42:26.044Z,0.56
2018-12-20T19:44:53.629Z,0.37
2018-12-20T19:47:21.591Z,0.31
2018-12-20T19:49:49.181Z,0.19
2018-12-20T19:52:16.780Z,0.21
2018-12-20T19:54:48.056Z,0.35
2018-12-20T19:57:12.141Z,0.19
2018-12-20T19:59:41.606Z,0.27
2018-12-20T20:02:09.212Z,0.22
2018-12-20T20:04:36.787Z,0.19
2018-12-20T20:07:04.353Z,0.31
2018-12-20T20:09:32.179Z,0.25
2018-12-20T20:11:59.730Z,0.39
2018-12-20T20:14:27.286Z,0.38
2018-12-20T20:16:54.884Z,0.25
2018-12-20T20:19:22.453Z,0.15
2018-12-20T20:21:50.005Z,0.17
2018-12-20T20:24:17.744Z,0.28
2018-12-20T20:26:45.334Z,0.25
2018-12-20T20:29:12.871Z,0.35
2018-12-20T20:31:40.564Z,0.34
2018-12-20T20:34:08.118Z,0.51
2018-12-20T20:36:35.685Z,0.30
2018-12-20T20:39:03.506Z,0.12
2018-12-20T20:41:31.090Z,0.25
2018-12-20T20:43:58.658Z,0.02
2018-12-20T20:46:26.268Z,0.16
2018-12-20T20:48:53.818Z,0.12
2018-12-20T20:51:21.372Z,0.11
2018-12-20T20:53:49.015Z,0.21
2018-12-20T20:56:16.566Z,0.15
2018-12-20T20:58:44.183Z,0.18
2018-12-20T21:01:13.758Z,0.05
2018-12-20T21:03:41.326Z,0.27
2018-12-20T21:06:08.898Z,0.13
2018-12-20T21:08:36.769Z,0.06
2018-12-20T21:11:04.332Z,0.16
2018-12-20T21:13:31.888Z,0.22
2018-12-20T21:15:59.619Z,0.27
2018-12-20T21:18:27.154Z,0.30
2018-12-20T21:20:54.706Z,0.16
2018-12-20T21:23:22.482Z,0.10
2018-12-20T21:25:50.042Z,0.08
2018-12-20T21:28:17.579Z,0.16
2018-12-20T21:30:45.280Z,0.25
2018-12-20T21:33:12.818Z,-0.04
2018-12-20T21:35:40.426Z,0.06
2018-12-20T21:38:08.129Z,0.13
2018-12-20T21:40:35.676Z,0.27
2018-12-20T21:43:03.253Z,0.34
2018-12-20T21:45:31.106Z,0.41
2018-12-20T21:47:58.669Z,0.48
2018-12-20T21:50:26.242Z,0.57
2018-12-20T21:52:53.832Z,0.54
2018-12-20T21:55:21.386Z,0.24
2018-12-20T21:57:48.934Z,0.09
2018-12-20T22:00:16.661Z,0.07
2018-12-20T22:02:44.238Z,0.12
2018-12-20T22:05:11.794Z,0.24
2018-12-20T22:07:39.392Z,-0.10
2018-12-20T22:10:06.981Z,0.04
2018-12-20T22:12:34.540Z,0.08
2018-12-20T22:15:02.168Z,0.08
2018-12-20T22:17:29.719Z,0.02
2018-12-20T22:19:58.648Z,0.16
2018-12-20T22:22:25.058Z,0.17
2018-12-20T22:24:52.640Z,0.09
2018-12-20T22:27:20.217Z,0.12
2018-12-20T22:29:47.912Z,0.06
2018-12-20T22:32:15.443Z,0.09
2018-12-20T22:34:43.041Z,-0.16
2018-12-20T22:37:10.749Z,-0.20
2018-12-20T22:39:38.290Z,-0.17
2018-12-20T22:42:05.849Z,-0.18
2018-12-20T22:44:33.453Z,0.07
2018-12-20T22:47:01.028Z,0.11
2018-12-20T22:49:28.571Z,0.19
2018-12-20T22:51:56.293Z,-0.02
2018-12-20T22:54:23.868Z,0.01
2018-12-20T22:56:51.441Z,-0.06
2018-12-20T22:59:19.081Z,0.04
2018-12-20T23:01:46.670Z,-0.04
2018-12-20T23:04:14.249Z,0.14
2018-12-20T23:06:41.980Z,-0.01
2018-12-20T23:09:09.533Z,-0.15
2018-12-20T23:11:37.092Z,-0.09
2018-12-20T23:14:04.857Z,-0.21
2018-12-20T23:16:32.370Z,-0.24
2018-12-20T23:18:59.904Z,-0.19
2018-12-20T23:21:27.518Z,-0.05
2018-12-20T23:23:55.057Z,0.15
2018-12-20T23:26:22.593Z,0.08
2018-12-20T23:28:50.295Z,0.02
2018-12-20T23:31:17.881Z,0.18
2018-12-20T23:33:45.430Z,-0.01
2018-12-20T23:36:13.063Z,0.22
2018-12-20T23:38:40.629Z,0.00
2018-12-20T23:41:18.061Z,0.12
2018-12-20T23:43:45.650Z,0.22
2018-12-20T23:46:13.244Z,-0.02
2018-12-20T23:48:40.868Z,-0.19
2018-12-20T23:51:13.511Z,-0.29
2018-12-20T23:53:36.053Z,-0.11
2018-12-20T23:56:03.758Z,-0.10
2018-12-20T23:58:31.293Z,-0.03
